Time;durP1;ratioP1;P1;durP2;ratioP2;P2;SDS_P1;SDS_P2;PMS_P1;PMS_P2;Temp;Humidity;BMP_temperature;BMP_pressure;BME280_temperature;BME280_humidity;BME280_pressure;Samples;Min_cycle;Max_cycle;Signal;HPM_P1;HPM_P2
2022/07/11 00:01:01;;;;;;;3.40;1.70;;;16.50;99.90;;;;;;5084428;28;37126;-52
2022/07/11 00:03:29;;;;;;;4.45;1.73;;;16.50;99.90;;;;;;5084970;28;36558;-52
2022/07/11 00:05:56;;;;;;;3.85;1.70;;;16.50;99.90;;;;;;5084447;28;38013;-52
2022/07/11 00:08:23;;;;;;;4.65;1.88;;;16.40;99.90;;;;;;5084009;28;38077;-54
2022/07/11 00:10:53;;;;;;;4.60;1.58;;;16.40;99.90;;;;;;5084092;28;35468;-53
2022/07/11 00:13:20;;;;;;;2.83;1.55;;;16.40;99.90;;;;;;5084110;28;38835;-53
2022/07/11 00:15:48;;;;;;;4.65;1.88;;;16.40;99.90;;;;;;5084365;28;37548;-52
2022/07/11 00:18:15;;;;;;;4.80;1.90;;;16.40;99.90;;;;;;5083793;27;37234;-53
2022/07/11 00:20:42;;;;;;;4.10;1.70;;;16.40;99.90;;;;;;5084121;28;36409;-53
2022/07/11 00:23:10;;;;;;;5.10;1.65;;;16.40;99.90;;;;;;5083878;28;37568;-53
2022/07/11 00:25:37;;;;;;;3.70;1.63;;;16.40;99.90;;;;;;5084934;28;37525;-55
2022/07/11 00:28:06;;;;;;;2.90;1.65;;;16.40;99.90;;;;;;5084407;28;37268;-53
2022/07/11 00:30:34;;;;;;;4.43;1.60;;;16.30;99.90;;;;;;5083296;28;36467;-52
2022/07/11 00:33:01;;;;;;;5.50;1.80;;;16.30;99.90;;;;;;5084051;28;38067;-53
2022/07/11 00:35:28;;;;;;;2.05;1.27;;;16.30;99.90;;;;;;5083811;28;39189;-53
2022/07/11 00:37:55;;;;;;;3.40;1.50;;;16.30;99.90;;;;;;5083248;28;37464;-54
2022/07/11 00:40:23;;;;;;;2.75;1.10;;;16.30;99.90;;;;;;5083791;28;39358;-53
2022/07/11 00:42:50;;;;;;;3.63;1.30;;;16.30;99.90;;;;;;5084424;28;37236;-53
2022/07/11 00:45:19;;;;;;;1.92;1.00;;;16.30;99.90;;;;;;5084149;28;39101;-53
2022/07/11 00:47:46;;;;;;;2.50;1.13;;;16.30;99.90;;;;;;5083793;28;37212;-52
2022/07/11 00:50:15;;;;;;;2.55;1.30;;;16.30;99.90;;;;;;5083981;28;35766;-53
2022/07/11 00:52:43;;;;;;;2.88;1.20;;;16.30;99.90;;;;;;5084050;28;38304;-53
2022/07/11 00:55:11;;;;;;;2.75;1.38;;;16.30;99.90;;;;;;5083858;28;37966;-53
2022/07/11 00:57:40;;;;;;;2.65;1.40;;;16.30;99.90;;;;;;5083483;28;37977;-53
2022/07/11 01:00:09;;;;;;;3.63;1.40;;;16.30;99.90;;;;;;5084359;28;37422;-53
2022/07/11 01:02:37;;;;;;;3.70;1.63;;;16.30;99.90;;;;;;5084150;28;36955;-52
2022/07/11 01:05:05;;;;;;;2.97;1.58;;;16.30;99.90;;;;;;5083025;28;38331;-53
2022/07/11 01:07:33;;;;;;;3.88;1.50;;;16.30;99.90;;;;;;5083518;28;37593;-54
2022/07/11 01:10:00;;;;;;;7.20;1.83;;;16.30;99.90;;;;;;5081668;28;37990;-53
2022/07/11 01:12:28;;;;;;;5.50;2.00;;;16.30;99.90;;;;;;5083759;28;38185;-53
2022/07/11 01:14:59;;;;;;;3.72;1.70;;;16.30;99.90;;;;;;5084190;28;38379;-52
2022/07/11 01:17:26;;;;;;;3.60;1.45;;;16.30;99.90;;;;;;5082200;28;37484;-53
2022/07/11 01:19:54;;;;;;;3.58;1.52;;;16.30;99.90;;;;;;5083710;28;36896;-53
2022/07/11 01:22:25;;;;;;;7.45;2.20;;;16.30;99.90;;;;;;5083389;28;37736;-53
2022/07/11 01:24:55;;;;;;;4.10;1.92;;;16.30;99.90;;;;;;5082939;28;35762;-52
2022/07/11 01:27:23;;;;;;;3.83;1.90;;;16.30;99.90;;;;;;5084322;28;37660;-53
2022/07/11 01:29:50;;;;;;;4.18;2.13;;;16.30;99.90;;;;;;5083226;28;37418;-52
2022/07/11 01:32:18;;;;;;;6.25;2.15;;;16.20;99.90;;;;;;5082467;28;39182;-52
2022/07/11 01:34:45;;;;;;;4.50;1.98;;;16.30;99.90;;;;;;5083234;27;37614;-52
2022/07/11 01:37:13;;;;;;;6.20;2.15;;;16.30;99.90;;;;;;5084653;28;37279;-51
2022/07/11 01:39:40;;;;;;;4.47;2.10;;;16.30;99.90;;;;;;5082344;27;37008;-53
2022/07/11 01:42:09;;;;;;;6.32;2.00;;;16.30;99.90;;;;;;5083221;28;38526;-52
2022/07/11 01:44:36;;;;;;;5.07;2.33;;;16.30;99.90;;;;;;5081088;28;38431;-52
2022/07/11 01:47:04;;;;;;;4.88;2.22;;;16.30;99.90;;;;;;5081199;28;37192;-53
2022/07/11 01:49:31;;;;;;;5.03;2.55;;;16.30;99.90;;;;;;5081292;28;37954;-52
2022/07/11 01:51:58;;;;;;;5.13;2.50;;;16.30;99.90;;;;;;5082698;28;39322;-52
2022/07/11 01:54:26;;;;;;;4.72;2.00;;;16.30;99.90;;;;;;5083227;28;36377;-53
2022/07/11 01:56:53;;;;;;;4.28;2.10;;;16.30;99.90;;;;;;5082005;28;37541;-51
2022/07/11 01:59:22;;;;;;;3.88;1.98;;;16.30;99.90;;;;;;5082631;28;37016;-53
2022/07/11 02:01:49;;;;;;;6.90;2.20;;;16.30;99.90;;;;;;5082526;28;38056;-52
2022/07/11 02:04:16;;;;;;;5.70;2.38;;;16.30;99.90;;;;;;5083197;28;36393;-53
2022/07/11 02:06:43;;;;;;;4.88;2.42;;;16.30;99.90;;;;;;5083140;28;37317;-53
2022/07/11 02:09:11;;;;;;;3.53;2.08;;;16.30;99.90;;;;;;5082412;28;35405;-52
2022/07/11 02:11:40;;;;;;;4.75;2.22;;;16.30;99.90;;;;;;5083228;28;37589;-50
2022/07/11 02:14:07;;;;;;;5.07;2.60;;;16.30;99.90;;;;;;5082402;28;39167;-52
2022/07/11 02:16:37;;;;;;;5.82;2.47;;;16.30;99.90;;;;;;5082244;28;37630;-52
2022/07/11 02:19:06;;;;;;;7.57;2.90;;;16.30;99.90;;;;;;5081619;28;37308;-52
2022/07/11 02:21:34;;;;;;;6.57;2.67;;;16.30;99.90;;;;;;5082761;28;37735;-51
2022/07/11 02:24:01;;;;;;;5.88;2.50;;;16.30;99.90;;;;;;5082488;28;39110;-51
2022/07/11 02:26:28;;;;;;;5.38;2.47;;;16.30;99.90;;;;;;5082032;28;38631;-53
2022/07/11 02:28:56;;;;;;;3.90;2.20;;;16.30;99.90;;;;;;5082801;28;35423;-52
2022/07/11 02:31:23;;;;;;;7.15;2.30;;;16.30;99.90;;;;;;5082430;28;38007;-52
2022/07/11 02:33:52;;;;;;;5.53;3.10;;;16.30;99.90;;;;;;5082699;28;38980;-52
2022/07/11 02:36:19;;;;;;;3.92;2.50;;;16.30;99.90;;;;;;5081184;28;37295;-52
2022/07/11 02:38:46;;;;;;;6.68;3.25;;;16.30;99.90;;;;;;5081314;28;36550;-52
2022/07/11 02:41:14;;;;;;;8.43;3.35;;;16.30;99.90;;;;;;5082268;28;37689;-53
2022/07/11 02:43:41;;;;;;;6.13;2.97;;;16.30;99.90;;;;;;5080320;27;37901;-53
2022/07/11 02:46:08;;;;;;;7.43;2.72;;;16.30;99.90;;;;;;5083146;28;37203;-52
2022/07/11 02:48:35;;;;;;;5.28;2.80;;;16.30;99.90;;;;;;5080749;28;36710;-52
2022/07/11 02:51:04;;;;;;;5.50;2.05;;;16.30;99.90;;;;;;5083419;27;36212;-53
2022/07/11 02:53:31;;;;;;;5.78;2.47;;;16.30;99.90;;;;;;5085707;28;37560;-52
2022/07/11 02:55:59;;;;;;;4.40;2.15;;;16.30;99.90;;;;;;5084659;28;37456;-52
2022/07/11 02:58:26;;;;;;;5.35;2.13;;;16.30;99.90;;;;;;5064293;28;37335;-53
2022/07/11 03:00:56;;;;;;;5.43;1.95;;;16.30;99.90;;;;;;5065606;28;38063;-54
2022/07/11 03:03:23;;;;;;;5.80;1.85;;;16.30;99.90;;;;;;5065483;28;39066;-53
2022/07/11 03:05:51;;;;;;;6.20;2.10;;;16.30;99.90;;;;;;5065383;28;39018;-52
2022/07/11 03:08:19;;;;;;;5.63;2.17;;;16.30;99.90;;;;;;5065567;28;35902;-53
2022/07/11 03:10:48;;;;;;;5.28;2.28;;;16.30;99.90;;;;;;5065764;28;37805;-53
2022/07/11 03:13:15;;;;;;;5.72;2.45;;;16.30;99.90;;;;;;5066030;28;39013;-53
2022/07/11 03:15:43;;;;;;;4.80;1.92;;;16.30;99.90;;;;;;5065721;28;37514;-52
2022/07/11 03:18:10;;;;;;;7.55;2.72;;;16.30;99.90;;;;;;5065668;28;36568;-52
2022/07/11 03:20:37;;;;;;;4.68;2.00;;;16.30;99.90;;;;;;5066318;28;38586;-53
2022/07/11 03:23:04;;;;;;;4.93;2.33;;;16.30;99.90;;;;;;5065321;28;37634;-52
2022/07/11 03:25:33;;;;;;;4.57;2.10;;;16.30;99.90;;;;;;5065141;28;37238;-52
2022/07/11 03:28:00;;;;;;;3.60;1.90;;;16.30;99.90;;;;;;5064650;28;35331;-51
2022/07/11 03:30:28;;;;;;;4.60;2.05;;;16.30;99.90;;;;;;5065143;28;38660;-53
2022/07/11 03:32:55;;;;;;;5.97;1.90;;;16.30;99.90;;;;;;5065126;28;37612;-53
2022/07/11 03:38:07;;;;;;;4.38;1.80;;;16.30;99.90;;;;;;5065398;28;38126;-51
2022/07/11 03:40:36;;;;;;;3.80;1.80;;;16.30;99.90;;;;;;5064978;28;36470;-50
2022/07/11 03:43:04;;;;;;;4.85;1.70;;;16.30;99.90;;;;;;5063358;28;38151;-52
2022/07/11 03:45:31;;;;;;;4.60;1.88;;;16.30;99.90;;;;;;5065783;28;39173;-52
2022/07/11 03:47:59;;;;;;;3.70;1.50;;;16.30;99.90;;;;;;5065309;28;37310;-52
2022/07/11 03:50:26;;;;;;;3.10;1.30;;;16.30;99.90;;;;;;5065006;28;36447;-52
2022/07/11 03:52:53;;;;;;;4.43;1.10;;;16.30;99.90;;;;;;5064824;28;37816;-53
2022/07/11 03:55:21;;;;;;;4.10;1.20;;;16.30;99.90;;;;;;5063840;28;38132;-52
2022/07/11 03:57:50;;;;;;;2.50;0.88;;;16.30;99.90;;;;;;5079415;28;37424;-52
2022/07/11 04:00:19;;;;;;;3.63;1.05;;;16.30;99.90;;;;;;5084521;28;36402;-53
2022/07/11 04:02:47;;;;;;;3.40;1.15;;;16.30;99.90;;;;;;5084981;27;37647;-52
2022/07/11 04:05:15;;;;;;;2.22;0.90;;;16.30;99.90;;;;;;5084820;27;37409;-53
2022/07/11 04:07:42;;;;;;;3.67;1.00;;;16.30;99.90;;;;;;5085259;28;36815;-52
2022/07/11 04:10:10;;;;;;;2.33;0.90;;;16.30;99.90;;;;;;5081514;28;37623;-53
2022/07/11 04:12:38;;;;;;;2.20;0.95;;;16.30;99.90;;;;;;5082807;28;38131;-53
2022/07/11 04:15:08;;;;;;;6.45;1.13;;;16.30;99.90;;;;;;5083329;28;37964;-51
2022/07/11 04:17:35;;;;;;;4.20;1.00;;;16.30;99.90;;;;;;5082263;28;36493;-53
2022/07/11 04:20:03;;;;;;;3.10;1.08;;;16.30;99.90;;;;;;5083127;28;37945;-53
2022/07/11 04:22:31;;;;;;;3.92;1.52;;;16.30;99.90;;;;;;5081886;28;36531;-52
2022/07/11 04:24:58;;;;;;;1.65;0.90;;;16.30;99.90;;;;;;5082504;27;37131;-51
2022/07/11 04:27:26;;;;;;;2.58;0.98;;;16.30;99.90;;;;;;5081932;28;36628;-52
2022/07/11 04:29:53;;;;;;;1.60;0.93;;;16.30;99.90;;;;;;5082797;28;37344;-53
2022/07/11 04:32:22;;;;;;;4.10;1.15;;;16.40;99.90;;;;;;5081807;28;37206;-51
2022/07/11 04:34:49;;;;;;;2.47;1.17;;;16.40;99.90;;;;;;5082683;28;38061;-52
2022/07/11 04:37:17;;;;;;;4.30;1.23;;;16.40;99.90;;;;;;5082412;28;36464;-53
2022/07/11 04:39:46;;;;;;;4.13;1.17;;;16.40;99.90;;;;;;5082486;28;38811;-53
2022/07/11 04:42:14;;;;;;;2.33;1.00;;;16.40;99.90;;;;;;5083458;28;37811;-52
2022/07/11 04:44:42;;;;;;;6.30;1.48;;;16.40;99.90;;;;;;5082742;28;37498;-53
2022/07/11 04:47:09;;;;;;;3.03;1.10;;;16.40;99.90;;;;;;5082964;27;37240;-53
2022/07/11 04:49:38;;;;;;;2.60;1.20;;;16.40;99.90;;;;;;5082843;28;40236;-52
2022/07/11 04:52:06;;;;;;;5.57;1.20;;;16.40;99.90;;;;;;5084360;28;36789;-51
2022/07/11 04:54:33;;;;;;;5.38;0.95;;;16.40;99.90;;;;;;5084446;27;38073;-53
2022/07/11 04:57:01;;;;;;;4.95;1.08;;;16.40;99.90;;;;;;5082038;28;36591;-53
2022/07/11 04:59:28;;;;;;;1.92;0.90;;;16.30;99.90;;;;;;5083977;28;37372;-52
2022/07/11 05:01:56;;;;;;;3.63;1.48;;;16.40;99.90;;;;;;5082205;28;38372;-52
2022/07/11 05:04:23;;;;;;;2.28;0.80;;;16.40;99.90;;;;;;5081998;28;38326;-53
2022/07/11 05:06:52;;;;;;;3.50;0.80;;;16.40;99.90;;;;;;5082099;28;36395;-53
2022/07/11 05:09:19;;;;;;;2.90;1.23;;;16.40;99.90;;;;;;5082364;28;37838;-53
2022/07/11 05:11:46;;;;;;;3.65;1.00;;;16.50;99.90;;;;;;5081672;28;37572;-51
2022/07/11 05:14:13;;;;;;;1.88;0.80;;;16.50;99.90;;;;;;5082166;27;38111;-52
2022/07/11 05:16:41;;;;;;;3.83;1.20;;;16.50;99.90;;;;;;5083136;28;37569;-52
2022/07/11 05:19:08;;;;;;;3.30;1.08;;;16.50;99.90;;;;;;5083431;28;38993;-53
2022/07/11 05:21:36;;;;;;;3.80;1.00;;;16.50;99.90;;;;;;5082865;28;38216;-52
2022/07/11 05:24:05;;;;;;;4.20;1.45;;;16.50;99.90;;;;;;5082684;28;37838;-51
2022/07/11 05:26:33;;;;;;;3.42;1.10;;;16.50;99.90;;;;;;5083155;28;37165;-52
2022/07/11 05:29:00;;;;;;;1.42;0.90;;;16.50;99.90;;;;;;5081595;28;37115;-53
2022/07/11 05:31:28;;;;;;;3.65;1.00;;;16.50;99.90;;;;;;5081635;28;36961;-52
2022/07/11 05:33:55;;;;;;;4.07;1.00;;;16.50;99.90;;;;;;5082351;27;38052;-53
2022/07/11 05:36:23;;;;;;;3.38;0.95;;;16.50;99.90;;;;;;5080164;28;36379;-53
2022/07/11 05:38:50;;;;;;;3.15;0.80;;;16.50;99.90;;;;;;5082639;28;38171;-53
2022/07/11 05:41:19;;;;;;;2.25;0.68;;;16.50;99.90;;;;;;5082402;28;36577;-53
2022/07/11 05:43:46;;;;;;;2.08;0.80;;;16.50;99.90;;;;;;5083959;28;35933;-52
2022/07/11 05:46:13;;;;;;;3.42;0.65;;;16.50;99.90;;;;;;5081819;28;36549;-53
2022/07/11 05:48:41;;;;;;;3.10;0.90;;;16.50;99.90;;;;;;5080653;28;38183;-53
2022/07/11 05:51:08;;;;;;;8.23;0.80;;;16.50;99.90;;;;;;5080558;28;38664;-52
2022/07/11 05:53:35;;;;;;;5.53;0.90;;;16.50;99.90;;;;;;5080128;28;38375;-52
2022/07/11 05:56:03;;;;;;;2.63;0.80;;;16.50;99.90;;;;;;5080638;28;36291;-51
2022/07/11 05:58:32;;;;;;;2.40;0.85;;;16.50;99.90;;;;;;5080916;28;37516;-54
2022/07/11 06:00:59;;;;;;;4.25;1.02;;;16.50;99.90;;;;;;5080942;28;37503;-53
2022/07/11 06:03:26;;;;;;;3.05;0.70;;;16.60;99.90;;;;;;5082402;28;38009;-53
2022/07/11 06:05:54;;;;;;;2.50;0.80;;;16.60;99.90;;;;;;5080849;28;36434;-52
2022/07/11 06:11:06;;;;;;;3.83;0.98;;;16.50;99.90;;;;;;5082446;28;38629;-53
2022/07/11 06:13:36;;;;;;;4.50;1.00;;;16.50;99.90;;;;;;5082419;28;37342;-52
2022/07/11 06:16:04;;;;;;;2.92;1.00;;;16.50;99.90;;;;;;5082709;28;37249;-52
2022/07/11 06:18:32;;;;;;;4.60;1.13;;;16.60;99.90;;;;;;5082370;28;37742;-53
2022/07/11 06:20:59;;;;;;;2.97;0.80;;;16.60;99.90;;;;;;5081865;28;37644;-53
2022/07/11 06:23:27;;;;;;;4.80;1.02;;;16.70;99.90;;;;;;5083744;28;37356;-52
2022/07/11 06:25:54;;;;;;;3.72;0.80;;;16.70;99.90;;;;;;5081722;28;37004;-51
2022/07/11 06:28:22;;;;;;;2.53;0.80;;;16.70;99.90;;;;;;5082858;28;38534;-53
2022/07/11 06:30:51;;;;;;;3.10;0.80;;;16.70;99.90;;;;;;5081978;28;38245;-52
2022/07/11 06:33:19;;;;;;;3.58;0.50;;;16.70;99.90;;;;;;5081405;28;36273;-52
2022/07/11 06:35:47;;;;;;;2.22;0.50;;;16.70;99.90;;;;;;5082330;27;37466;-52
2022/07/11 06:38:16;;;;;;;3.65;0.73;;;16.70;99.90;;;;;;5080660;28;38519;-51
2022/07/11 06:40:44;;;;;;;1.40;0.50;;;16.70;99.90;;;;;;5080935;28;37916;-52
2022/07/11 06:43:11;;;;;;;2.38;0.60;;;16.70;99.90;;;;;;5080916;28;37630;-52
2022/07/11 06:45:39;;;;;;;1.95;0.22;;;16.70;99.90;;;;;;5081475;28;36526;-53
2022/07/11 06:48:08;;;;;;;1.02;0.65;;;16.70;99.90;;;;;;5078894;28;37340;-53
2022/07/11 06:50:36;;;;;;;1.25;0.40;;;16.80;99.90;;;;;;5069663;28;37546;-52
2022/07/11 06:53:03;;;;;;;0.50;0.30;;;16.80;99.90;;;;;;5073008;28;36050;-53
2022/07/11 06:55:31;;;;;;;0.98;0.50;;;16.80;99.90;;;;;;5072824;28;37048;-53
2022/07/11 06:57:58;;;;;;;0.50;0.30;;;16.80;99.90;;;;;;5073843;28;37883;-53
2022/07/11 07:00:29;;;;;;;1.35;0.47;;;16.80;99.90;;;;;;5074934;28;36569;-52
2022/07/11 07:02:57;;;;;;;2.47;0.85;;;16.80;99.90;;;;;;5077332;28;37424;-52
2022/07/11 07:05:26;;;;;;;1.30;0.60;;;16.80;99.90;;;;;;5075525;28;36592;-53
2022/07/11 07:07:54;;;;;;;2.72;1.02;;;16.80;99.90;;;;;;5078366;28;39581;-52
2022/07/11 07:10:21;;;;;;;4.30;1.10;;;16.80;99.90;;;;;;5074776;28;38848;-53
2022/07/11 07:12:48;;;;;;;2.15;1.00;;;16.80;99.90;;;;;;5074461;28;36317;-53
2022/07/11 07:15:18;;;;;;;2.63;0.90;;;16.90;99.90;;;;;;5074971;28;36657;-53
2022/07/11 07:17:57;;;;;;;3.28;0.90;;;16.80;99.90;;;;;;5074041;28;36360;-51
2022/07/11 07:20:26;;;;;;;1.35;0.60;;;16.90;99.90;;;;;;5073422;28;38369;-53
2022/07/11 07:22:53;;;;;;;2.80;0.88;;;16.90;99.90;;;;;;5076423;28;37669;-53
2022/07/11 07:25:20;;;;;;;1.73;0.80;;;17.00;99.90;;;;;;5074603;28;36268;-52
2022/07/11 07:27:48;;;;;;;2.70;0.77;;;17.20;99.90;;;;;;5075355;28;37535;-53
2022/07/11 07:30:15;;;;;;;3.67;1.00;;;17.20;99.90;;;;;;5076116;28;38410;-53
2022/07/11 07:32:43;;;;;;;3.03;0.85;;;17.30;99.90;;;;;;5075424;28;37750;-53
2022/07/11 07:35:10;;;;;;;3.35;0.93;;;17.30;99.90;;;;;;5076821;28;36479;-52
2022/07/11 07:37:39;;;;;;;2.65;0.77;;;17.30;99.90;;;;;;5078993;27;38332;-52
2022/07/11 07:40:07;;;;;;;2.05;0.60;;;17.40;99.90;;;;;;5078938;28;37476;-52
2022/07/11 07:42:35;;;;;;;1.55;0.65;;;17.50;99.90;;;;;;5080039;28;36967;-53
2022/07/11 07:45:02;;;;;;;1.52;0.55;;;17.50;99.90;;;;;;5079295;28;36830;-53
2022/07/11 07:47:30;;;;;;;2.17;0.68;;;17.60;99.90;;;;;;5078149;28;37547;-50
2022/07/11 07:50:00;;;;;;;2.63;0.68;;;17.60;99.90;;;;;;5079493;28;37493;-52
2022/07/11 07:52:28;;;;;;;1.35;0.50;;;17.70;99.90;;;;;;5079033;28;37911;-53
2022/07/11 07:54:56;;;;;;;0.93;0.47;;;17.70;99.90;;;;;;5079245;28;36922;-52
2022/07/11 07:57:24;;;;;;;1.63;0.40;;;17.70;99.90;;;;;;5078536;28;41201;-52
2022/07/11 08:01:34;;;;;;;1.98;0.30;;;17.60;99.90;;;;;;5078623;28;38656;-52
2022/07/11 08:02:38;;;;;;;2.50;0.30;;;17.70;99.90;;;;;;5079536;28;37972;-52
2022/07/11 08:05:06;;;;;;;1.15;0.30;;;17.70;99.90;;;;;;5077697;28;39386;-53
2022/07/11 08:07:33;;;;;;;0.10;0.10;;;17.70;99.90;;;;;;5079060;28;39675;-53
2022/07/11 08:10:02;;;;;;;0.10;0.10;;;17.70;99.90;;;;;;5079003;28;38139;-53
2022/07/11 08:12:31;;;;;;;1.00;0.28;;;17.60;99.90;;;;;;5078967;28;37628;-51
2022/07/11 08:14:59;;;;;;;1.75;0.30;;;17.70;99.90;;;;;;5078693;28;36684;-52
2022/07/11 08:17:26;;;;;;;0.60;0.30;;;17.60;99.90;;;;;;5078584;28;38080;-52
2022/07/11 08:19:53;;;;;;;0.68;0.20;;;17.70;99.90;;;;;;5073181;28;38411;-52
2022/07/11 08:22:21;;;;;;;0.85;0.32;;;17.90;99.90;;;;;;5078865;27;38319;-53
2022/07/11 08:24:48;;;;;;;1.13;0.38;;;18.00;99.90;;;;;;5076372;28;35380;-53
2022/07/11 08:27:17;;;;;;;0.82;0.30;;;18.10;99.90;;;;;;5078364;28;37953;-53
2022/07/11 08:29:44;;;;;;;0.73;0.30;;;18.20;99.90;;;;;;5079097;28;38816;-52
2022/07/11 08:32:12;;;;;;;0.40;0.20;;;18.30;99.90;;;;;;5079646;28;37774;-54
2022/07/11 08:34:40;;;;;;;0.55;0.25;;;18.30;99.90;;;;;;5078455;28;36993;-52
2022/07/11 08:37:07;;;;;;;1.10;0.40;;;18.30;99.90;;;;;;5078681;28;37252;-53
2022/07/11 08:39:34;;;;;;;1.50;0.38;;;18.30;99.90;;;;;;5077743;28;37720;-53
2022/07/11 08:42:02;;;;;;;0.50;0.13;;;18.20;99.90;;;;;;5078260;27;36694;-51
2022/07/11 08:44:31;;;;;;;0.85;0.30;;;18.10;99.90;;;;;;5077043;28;37542;-53
2022/07/11 08:47:00;;;;;;;0.45;0.20;;;18.00;99.90;;;;;;5076898;27;39513;-53
2022/07/11 08:49:28;;;;;;;0.95;0.25;;;18.00;99.90;;;;;;5076238;28;37668;-53
2022/07/11 08:51:56;;;;;;;2.47;0.30;;;17.90;99.90;;;;;;5077665;28;36998;-52
2022/07/11 08:54:24;;;;;;;0.98;0.30;;;17.90;99.90;;;;;;5077557;28;36331;-53
2022/07/11 08:56:54;;;;;;;1.08;0.40;;;17.90;99.90;;;;;;5077886;28;37457;-53
2022/07/11 08:59:24;;;;;;;0.40;0.15;;;17.90;99.90;;;;;;5078398;28;37879;-52
2022/07/11 09:01:56;;;;;;;0.30;0.17;;;17.90;99.90;;;;;;5078266;28;37481;-52
2022/07/11 09:04:24;;;;;;;1.00;0.28;;;17.90;99.90;;;;;;5078714;28;35601;-54
2022/07/11 09:06:52;;;;;;;0.90;0.30;;;18.00;99.90;;;;;;5078540;28;37590;-54
2022/07/11 09:09:20;;;;;;;1.45;0.90;;;18.00;99.90;;;;;;5078339;28;36427;-52
2022/07/11 09:11:52;;;;;;;1.35;0.40;;;18.00;99.90;;;;;;5078634;27;37161;-51
2022/07/11 09:14:24;;;;;;;1.23;0.30;;;18.00;99.90;;;;;;5078377;28;36713;-51
2022/07/11 09:16:57;;;;;;;1.23;0.30;;;18.00;99.90;;;;;;5075654;28;36393;-53
2022/07/11 09:19:26;;;;;;;0.93;0.35;;;18.00;99.90;;;;;;5076722;27;37624;-53
2022/07/11 09:27:46;;;;;;;1.58;0.40;;;18.00;99.90;;;;;;5076411;28;39404;-52
2022/07/11 09:30:19;;;;;;;2.63;0.40;;;18.00;99.90;;;;;;5075415;28;38072;-53
2022/07/11 09:32:55;;;;;;;0.40;0.23;;;18.00;99.90;;;;;;5070703;28;37130;-53
2022/07/11 09:35:23;;;;;;;2.05;0.20;;;18.20;99.90;;;;;;5073629;28;36965;-51
2022/07/11 09:37:50;;;;;;;0.38;0.10;;;18.40;99.90;;;;;;5074403;28;38906;-52
2022/07/11 09:40:19;;;;;;;2.05;0.20;;;18.60;99.90;;;;;;5073938;28;37576;-52
2022/07/11 09:42:51;;;;;;;1.08;0.20;;;18.60;99.90;;;;;;5075118;28;38199;-52
2022/07/11 09:45:19;;;;;;;0.50;0.10;;;18.60;99.90;;;;;;5075241;27;37479;-53
2022/07/11 09:47:49;;;;;;;1.33;0.30;;;18.50;99.90;;;;;;5074415;28;20511;-52
2022/07/11 09:50:20;;;;;;;1.85;0.28;;;18.40;99.90;;;;;;5073608;28;38594;-54
2022/07/11 09:53:02;;;;;;;0.63;0.10;;;18.40;99.90;;;;;;5076612;28;39133;-51
2022/07/11 09:55:30;;;;;;;0.00;0.00;;;18.40;99.90;;;;;;5075413;28;36074;-52
2022/07/11 09:57:57;;;;;;;0.40;0.10;;;18.30;99.90;;;;;;5073151;28;37699;-54
2022/07/11 10:00:25;;;;;;;0.55;0.22;;;18.30;99.90;;;;;;5070819;28;37729;-53
2022/07/11 10:02:54;;;;;;;1.08;0.30;;;18.30;99.90;;;;;;5073993;27;36338;-53
2022/07/11 10:05:24;;;;;;;0.10;0.10;;;18.20;99.90;;;;;;5071941;28;36162;-53
2022/07/11 10:07:51;;;;;;;0.57;0.20;;;18.20;99.90;;;;;;5075797;28;39619;-52
2022/07/11 10:10:19;;;;;;;0.30;0.20;;;18.20;99.90;;;;;;5073366;28;37746;-53
2022/07/11 10:12:47;;;;;;;2.00;0.30;;;18.20;99.90;;;;;;5077121;28;37428;-53
2022/07/11 10:15:17;;;;;;;1.73;0.10;;;18.20;99.90;;;;;;5075794;28;35256;-54
2022/07/11 10:18:08;;;;;;;1.90;0.30;;;18.10;99.90;;;;;;5074037;28;37435;-52
2022/07/11 10:20:45;;;;;;;1.08;0.20;;;18.10;99.90;;;;;;5073430;28;36519;-51
2022/07/11 10:23:20;;;;;;;3.00;0.22;;;18.10;99.90;;;;;;5072533;28;37699;-52
2022/07/11 10:25:54;;;;;;;2.28;0.35;;;18.10;99.90;;;;;;5074746;28;36304;-53
2022/07/11 10:28:27;;;;;;;0.20;0.10;;;18.10;99.90;;;;;;5076255;28;38116;-53
2022/07/11 10:30:59;;;;;;;0.40;0.20;;;18.10;99.90;;;;;;5075600;28;37997;-53
2022/07/11 10:33:28;;;;;;;1.80;0.30;;;18.20;99.90;;;;;;5075377;28;39268;-52
2022/07/11 10:35:58;;;;;;;1.15;0.40;;;18.20;99.90;;;;;;5074690;27;37433;-54
2022/07/11 10:38:25;;;;;;;1.05;0.30;;;18.20;99.90;;;;;;5074956;28;37675;-53
2022/07/11 10:40:54;;;;;;;0.70;0.40;;;18.20;99.90;;;;;;5074766;28;37607;-54
2022/07/11 10:43:38;;;;;;;1.98;0.45;;;18.20;99.90;;;;;;5072466;28;37297;-52
2022/07/11 10:46:07;;;;;;;1.10;0.40;;;18.20;99.90;;;;;;5075244;27;36590;-50
2022/07/11 10:48:36;;;;;;;0.63;0.40;;;18.20;99.90;;;;;;5074670;28;37221;-53
2022/07/11 10:51:17;;;;;;;0.98;0.35;;;18.20;99.90;;;;;;5073991;28;37715;-52
2022/07/11 10:53:48;;;;;;;1.92;0.52;;;18.20;99.90;;;;;;5075143;28;37963;-53
2022/07/11 10:56:28;;;;;;;1.75;0.40;;;18.30;99.90;;;;;;5073968;28;36628;-52
2022/07/11 10:59:04;;;;;;;0.40;0.20;;;18.30;99.90;;;;;;5073515;28;39247;-53
2022/07/11 11:01:33;;;;;;;0.68;0.30;;;18.40;99.90;;;;;;5074712;28;37511;-53
2022/07/11 11:04:38;;;;;;;0.30;0.22;;;18.40;99.90;;;;;;5073317;27;37177;-53
2022/07/11 11:07:07;;;;;;;1.35;0.30;;;18.40;99.90;;;;;;5074271;28;38620;-53
2022/07/11 11:09:38;;;;;;;0.20;0.10;;;18.50;99.90;;;;;;5074397;28;37494;-53
2022/07/11 11:12:06;;;;;;;1.67;0.10;;;18.50;99.90;;;;;;5077203;27;40040;-53
2022/07/11 11:14:33;;;;;;;0.95;0.20;;;18.40;99.90;;;;;;5080058;27;37252;-53
2022/07/11 11:17:37;;;;;;;0.55;0.15;;;18.40;99.90;;;;;;5077894;28;35326;-53
2022/07/11 11:20:05;;;;;;;1.02;0.20;;;18.40;99.90;;;;;;5077864;27;38629;-52
2022/07/11 11:22:34;;;;;;;2.65;0.20;;;18.40;99.90;;;;;;5077622;28;37689;-53
2022/07/11 11:25:01;;;;;;;0.68;0.30;;;18.40;99.90;;;;;;5077358;28;37542;-54
2022/07/11 11:27:30;;;;;;;1.88;0.52;;;18.40;99.90;;;;;;5077648;28;35932;-53
2022/07/11 11:29:58;;;;;;;0.80;0.50;;;18.40;99.90;;;;;;5075892;28;38078;-53
2022/07/11 11:32:30;;;;;;;1.02;0.30;;;18.40;99.90;;;;;;5076762;27;36528;-52
2022/07/11 11:34:59;;;;;;;1.08;0.40;;;18.50;99.90;;;;;;5077537;28;38659;-52
2022/07/11 11:37:26;;;;;;;0.77;0.50;;;18.50;99.90;;;;;;5078374;28;37338;-53
2022/07/11 11:40:00;;;;;;;0.88;0.55;;;18.50;99.90;;;;;;5076537;28;36501;-53
2022/07/11 11:42:30;;;;;;;1.35;0.60;;;18.50;99.90;;;;;;5078621;28;37366;-53
2022/07/11 11:45:01;;;;;;;2.10;0.82;;;18.50;99.90;;;;;;5077464;28;38139;-53
2022/07/11 11:47:32;;;;;;;2.90;0.93;;;18.50;99.90;;;;;;5078175;28;35495;-53
2022/07/11 11:50:01;;;;;;;1.55;0.60;;;18.50;99.90;;;;;;5077125;28;36261;-51
2022/07/11 11:52:29;;;;;;;0.95;0.47;;;18.50;99.90;;;;;;5077473;28;37503;-53
2022/07/11 11:54:59;;;;;;;1.35;0.57;;;18.50;99.90;;;;;;5075810;28;36068;-54
2022/07/11 11:57:28;;;;;;;1.55;0.40;;;18.50;99.90;;;;;;5065915;28;36802;-53
2022/07/11 11:59:57;;;;;;;1.42;0.40;;;18.40;99.90;;;;;;5056560;28;38430;-51
2022/07/11 12:02:26;;;;;;;1.23;0.38;;;18.40;99.90;;;;;;5055274;28;38296;-54
2022/07/11 12:04:54;;;;;;;1.83;0.50;;;18.40;99.90;;;;;;5055449;28;39144;-52
2022/07/11 12:07:26;;;;;;;0.52;0.50;;;18.50;99.90;;;;;;5054864;28;36728;-53
2022/07/11 12:09:56;;;;;;;1.20;0.50;;;18.50;99.90;;;;;;5054241;28;37866;-53
2022/07/11 12:12:46;;;;;;;1.70;0.30;;;18.50;99.90;;;;;;5052125;28;38666;-54
2022/07/11 12:15:26;;;;;;;1.02;0.40;;;18.60;99.90;;;;;;5054063;28;37388;-52
2022/07/11 12:17:59;;;;;;;0.68;0.40;;;18.70;99.90;;;;;;5052918;28;37407;-52
2022/07/11 12:20:38;;;;;;;1.75;0.40;;;18.70;99.90;;;;;;5052944;28;38464;-52
2022/07/11 12:23:07;;;;;;;0.68;0.30;;;18.80;99.90;;;;;;5051873;28;36654;-54
2022/07/11 12:25:35;;;;;;;2.15;0.32;;;18.80;99.90;;;;;;5052232;28;37648;-53
2022/07/11 12:28:07;;;;;;;1.30;0.43;;;18.90;99.90;;;;;;5053710;28;36524;-51
2022/07/11 12:30:35;;;;;;;0.95;0.38;;;18.90;99.90;;;;;;5057199;28;38410;-53
2022/07/11 12:33:07;;;;;;;1.65;0.30;;;18.90;99.90;;;;;;5055609;28;38684;-53
2022/07/11 12:35:35;;;;;;;1.42;0.50;;;18.90;99.90;;;;;;5056721;28;37406;-50
2022/07/11 12:38:02;;;;;;;6.05;0.32;;;18.90;99.90;;;;;;5056666;28;37397;-53
2022/07/11 12:40:30;;;;;;;1.65;0.15;;;18.90;99.90;;;;;;5055024;28;37427;-54
2022/07/11 12:42:57;;;;;;;1.13;0.32;;;18.90;99.90;;;;;;5056172;28;38577;-53
2022/07/11 12:45:25;;;;;;;1.20;0.50;;;18.90;99.90;;;;;;5055640;28;37950;-53
2022/07/11 12:47:53;;;;;;;1.83;0.50;;;18.90;99.90;;;;;;5057386;28;39021;-52
2022/07/11 12:50:23;;;;;;;0.47;0.20;;;18.90;99.90;;;;;;5056134;28;38679;-52
2022/07/11 12:52:52;;;;;;;0.68;0.25;;;18.90;99.90;;;;;;5056361;28;38496;-52
2022/07/11 12:55:24;;;;;;;0.47;0.30;;;19.00;99.90;;;;;;5055286;28;38005;-53
2022/07/11 12:58:13;;;;;;;1.33;0.30;;;19.00;99.90;;;;;;5069087;28;35912;-52
2022/07/11 13:00:56;;;;;;;0.45;0.28;;;19.00;99.90;;;;;;5074514;28;38391;-52
2022/07/11 13:03:31;;;;;;;2.30;0.35;;;19.00;99.90;;;;;;5075966;28;37543;-52
2022/07/11 13:05:58;;;;;;;1.00;0.40;;;19.10;99.90;;;;;;5075330;28;37275;-52
2022/07/11 13:11:13;;;;;;;1.10;0.40;;;19.20;99.90;;;;;;5076216;28;39713;-52